LOWLLOWG

Guest
Details From LOWL - Linz Hoersching
To LOWG - Graz Thalerhof
Flight Number -
Tags generated
Created
Modified
Stats Distance 90 nm / 167 km
Max Altitude 0 ft / 0 m
Waypoints 3
Social Downloads 0
Likes 0
Share VATSIM

Download

Looking for another format? Having issues loading an existing format? Contact us
Advertisement - Login to hide

Notes

None

Route

LOWL MILGO LOWG

ID Type Via Altitude Latitude Longitude Leg Dist Tot Dist Heading (true) Name
O LOWL APT - 0 ft / 0 m 48.23322˚ 14.18751˚ - 0 nm - Linz Hoersching
MILGO FIX - 0 ft / 0 m 47.30171˚ 15.09165˚ 66 nm 66 nm 147° / 147° -
O LOWG APT - 0 ft / 0 m 46.99031˚ 15.43967˚ 23 nm 90 nm 143° / 143° Graz Thalerhof

Altitude Profile

Advertisement - Login to hide

LOWL

Details ICAO LOWL (LNZ)
Name Linz Hoersching
Region Austria
Timezone Europe/Vienna (UTC+1.0)
Stats Elevation 978 ft / 298 m (AMSL)
Location 48.233219° 14.187513°
Runways 1
Magnetic Variation 3.726° E

METAR

LOWL 160520Z 26004KT 9999 FEW021 BKN075 M01/M03 Q1003 R08/19//95 NOSIG

Decode

TAF

TAF LOWL 152315Z 1600/1624 24003KT 9999 FEW020 BKN050 TX03/1613Z TN00/1604Z PROB30 TEMPO 1602/1607 VRB01KT 1200 BCFG SCT130 TEMPO 1608/1624 28008KT 6000 -SHSN SCT008 BKN012

Decode

Departure Runways

ID Width Length Bearing (true) Bearing (mag) Surface Threshold Offset Overrun Length
09 197 ft / 60 m 9,802 ft / 2,988 m 86.49° 82.76° Asphalt 820 ft / 250 m 0 ft / 0 m
27 197 ft / 60 m 9,802 ft / 2,988 m 266.52° 262.79° Asphalt 492 ft / 150 m 0 ft / 0 m

LOWG

Details ICAO LOWG (GRZ)
Name Graz Thalerhof
Region Austria
Timezone Europe/Vienna (UTC+1.0)
Stats Elevation 1,115 ft / 340 m (AMSL)
Location 46.990308° 15.439665°
Runways 3
Magnetic Variation 3.922° E

METAR

LOWG 160520Z VRB02KT 6000 FEW080 BKN100 00/00 Q1001 NOSIG

Decode

TAF

TAF TAF LOWG 152315Z 1600/1624 VRB02KT 9999 SCT010 BKN060 TX05/1612Z TNM03/1621Z TEMPO 1600/1605 4000 -RA SCT010 BKN020 PROB30 TEMPO 1600/1603 1400 SN OVC007 PROB40 TEMPO 1603/1607 0500 FZFG BKN002

Decode

Destination Runways

ID Width Length Bearing (true) Bearing (mag) Surface Threshold Offset Overrun Length
17C 148 ft / 45 m 9,852 ft / 3,003 m 169.37° 165.45° Asphalt 853 ft / 260 m 98 ft / 30 m
17L 98 ft / 30 m 2,102 ft / 641 m 169.41° 165.49° Grass 0 ft / 0 m 0 ft / 0 m
17R 82 ft / 25 m 2,496 ft / 761 m 169.40° 165.48° Grass 492 ft / 150 m 0 ft / 0 m
35C 148 ft / 45 m 9,852 ft / 3,003 m 349.37° 345.45° Asphalt 0 ft / 0 m 0 ft / 0 m
35L 82 ft / 25 m 2,496 ft / 761 m 349.40° 345.48° Grass 0 ft / 0 m 0 ft / 0 m
35R 98 ft / 30 m 2,102 ft / 641 m 349.41° 345.49° Grass 0 ft / 0 m 0 ft / 0 m

Approach Navaids

Runway Type Ident Frequency Range Bearing (true) Bearing (mag) Slope Elevation
35C Localiser OEG 110.90 MHz 18 nm / 33 km 349.36° 345.44° - 1,098 ft / 335 m (AMSL)
35C Glidescope OEG 110.90 MHz 10 nm / 19 km 349.37° 345.45° 3.00° 1,098 ft / 335 m (AMSL)
35C DME OEG 110.90 MHz 18 nm / 33 km - - - 1,098 ft / 335 m (AMSL)

Popular Alternatives